createdAt,value
2019-02-26T00:03:42.587Z,0.40
2019-02-26T00:08:51.310Z,0.40
2019-02-26T00:13:54.980Z,0.30
2019-02-26T00:19:02.755Z,0.20
2019-02-26T00:24:09.922Z,0.20
2019-02-26T00:29:14.238Z,0.10
2019-02-26T00:34:19.243Z,0.10
2019-02-26T00:39:25.104Z,0.10
2019-02-26T00:44:32.718Z,0.20
2019-02-26T00:49:37.935Z,0.20
2019-02-26T00:54:42.927Z,0.20
2019-02-26T00:59:48.130Z,0.20
2019-02-26T01:04:53.229Z,0.20
2019-02-26T01:09:59.200Z,0.20
2019-02-26T01:15:07.047Z,0.10
2019-02-26T01:20:13.707Z,0.00
2019-02-26T01:25:22.350Z,0.10
2019-02-26T01:30:27.029Z,0.10
2019-02-26T01:35:33.137Z,0.10
2019-02-26T01:40:41.475Z,0.00
2019-02-26T01:45:46.261Z,0.00
2019-02-26T01:50:52.598Z,0.00
2019-02-26T01:55:58.463Z,0.00
2019-02-26T02:01:03.451Z,0.00
2019-02-26T02:06:11.066Z,0.10
2019-02-26T02:11:15.068Z,0.10
2019-02-26T02:16:21.971Z,0.00
2019-02-26T02:21:29.178Z,0.00
2019-02-26T02:26:34.972Z,0.20
2019-02-26T02:31:40.338Z,0.00
2019-02-26T02:36:45.369Z,-0.10
2019-02-26T02:41:51.672Z,-0.30
2019-02-26T02:46:58.565Z,-0.40
2019-02-26T02:52:04.156Z,-0.30
2019-02-26T02:57:10.233Z,-0.30
2019-02-26T03:02:17.666Z,-0.40
2019-02-26T03:07:23.542Z,-0.50
2019-02-26T03:12:28.588Z,-0.50
2019-02-26T03:17:33.608Z,-0.60
2019-02-26T03:22:41.517Z,-0.70
2019-02-26T03:27:45.268Z,-0.70
2019-02-26T03:32:55.769Z,-0.80
2019-02-26T03:37:58.110Z,-0.80
2019-02-26T03:43:04.493Z,-0.70
2019-02-26T03:48:10.160Z,-0.70
2019-02-26T03:53:15.164Z,-0.70
2019-02-26T03:58:20.678Z,-0.70
2019-02-26T04:03:25.677Z,-0.80
2019-02-26T04:08:30.676Z,-0.80
2019-02-26T04:13:35.686Z,-0.80
2019-02-26T04:18:41.122Z,-0.80
2019-02-26T04:23:46.749Z,-0.90
2019-02-26T04:29:03.888Z,-1.00
2019-02-26T04:34:13.824Z,-1.00
2019-02-26T04:39:47.661Z,-1.00
2019-02-26T04:45:38.279Z,-0.90
2019-02-26T04:50:44.583Z,-0.90
2019-02-26T04:55:49.893Z,-1.00
2019-02-26T05:00:54.906Z,-1.00
2019-02-26T05:06:02.090Z,-1.00
2019-02-26T05:11:06.539Z,-1.10
2019-02-26T05:16:11.543Z,-1.10
2019-02-26T05:21:16.536Z,-1.10
2019-02-26T05:26:21.536Z,-1.10
2019-02-26T05:31:26.544Z,-1.10
2019-02-26T05:36:33.785Z,-1.20
2019-02-26T05:41:40.619Z,-1.20
2019-02-26T05:46:47.350Z,-1.20
2019-02-26T05:51:53.509Z,-1.20
2019-02-26T05:56:58.695Z,-1.20
2019-02-26T06:02:03.709Z,-1.20
2019-02-26T06:07:09.225Z,-1.20
2019-02-26T06:12:16.131Z,-1.30
2019-02-26T06:17:21.120Z,-1.40
2019-02-26T06:22:27.197Z,-1.50
2019-02-26T06:27:32.764Z,-1.40
2019-02-26T06:32:39.706Z,-1.30
2019-02-26T06:37:44.425Z,-1.30
2019-02-26T06:42:49.492Z,-1.40
2019-02-26T06:47:56.320Z,-1.40
2019-02-26T06:53:04.412Z,-1.30
2019-02-26T06:58:27.764Z,-1.30
2019-02-26T07:03:32.775Z,-1.20
2019-02-26T07:08:38.064Z,-1.20
2019-02-26T07:13:43.985Z,-1.10
2019-02-26T07:18:49.708Z,-1.00
2019-02-26T07:23:56.389Z,-0.80
2019-02-26T07:29:03.364Z,-0.70
2019-02-26T07:34:07.949Z,-0.50
2019-02-26T07:39:15.065Z,-0.30
2019-02-26T07:44:21.242Z,-0.10
2019-02-26T07:49:26.219Z,0.10
2019-02-26T07:54:31.209Z,0.40
2019-02-26T07:59:36.958Z,0.50
2019-02-26T08:04:43.631Z,0.70
2019-02-26T08:09:49.139Z,0.90
2019-02-26T08:14:54.192Z,1.00
2019-02-26T08:19:59.236Z,1.30
2019-02-26T08:25:05.916Z,1.80
2019-02-26T08:30:14.918Z,2.30
2019-02-26T08:35:20.269Z,2.70
2019-02-26T08:40:25.270Z,2.90
2019-02-26T08:45:31.026Z,3.50
2019-02-26T08:50:38.865Z,4.00
2019-02-26T08:55:43.059Z,4.30
2019-02-26T09:00:48.051Z,4.70
2019-02-26T09:05:53.934Z,5.20
2019-02-26T09:11:00.856Z,5.60
2019-02-26T09:16:07.961Z,6.10
2019-02-26T09:21:15.148Z,6.50
2019-02-26T09:26:19.596Z,6.70
2019-02-26T09:31:24.586Z,7.10
2019-02-26T09:36:29.590Z,7.30
2019-02-26T09:41:35.546Z,7.50
2019-02-26T09:46:43.374Z,7.70
2019-02-26T09:51:47.808Z,7.90
2019-02-26T09:56:52.813Z,8.20
2019-02-26T10:01:58.934Z,8.30
2019-02-26T10:07:06.757Z,8.60
2019-02-26T10:12:15.129Z,8.70
2019-02-26T10:17:19.166Z,8.90
2019-02-26T10:22:26.049Z,9.10
2019-02-26T10:27:33.661Z,9.40
2019-02-26T10:32:37.559Z,9.70
2019-02-26T10:37:47.987Z,9.90
2019-02-26T10:42:53.097Z,10.10
2019-02-26T10:47:59.415Z,10.20
2019-02-26T10:53:09.620Z,10.20
2019-02-26T10:58:13.249Z,10.40
2019-02-26T11:03:20.098Z,10.50
2019-02-26T11:08:28.926Z,10.60
2019-02-26T11:13:31.230Z,10.80
2019-02-26T11:18:37.270Z,11.10
2019-02-26T11:23:44.029Z,11.10
2019-02-26T11:28:49.543Z,11.20
2019-02-26T11:33:56.510Z,11.30
2019-02-26T11:39:02.268Z,11.30
2019-02-26T11:44:12.483Z,11.30
2019-02-26T11:49:16.892Z,11.50
2019-02-26T11:54:21.116Z,11.80
2019-02-26T11:59:26.331Z,12.10
2019-02-26T12:04:31.304Z,12.30
2019-02-26T12:09:38.529Z,12.40
2019-02-26T12:14:44.111Z,12.70
2019-02-26T12:19:51.492Z,12.70
2019-02-26T12:24:58.868Z,12.80
2019-02-26T12:30:02.945Z,13.10
2019-02-26T12:35:09.414Z,13.20
2019-02-26T12:40:16.058Z,13.30
2019-02-26T12:45:21.666Z,13.20
2019-02-26T12:50:29.613Z,13.10
2019-02-26T12:55:35.849Z,13.30
2019-02-26T13:00:42.241Z,13.40
2019-02-26T13:05:49.198Z,13.50
2019-02-26T13:10:56.196Z,13.70
2019-02-26T13:16:01.158Z,13.80
2019-02-26T13:21:11.088Z,13.70
2019-02-26T13:26:14.486Z,13.80
2019-02-26T13:31:22.529Z,13.90
2019-02-26T13:36:27.972Z,14.00
2019-02-26T13:41:38.703Z,14.10
2019-02-26T13:46:40.013Z,14.20
2019-02-26T13:51:47.590Z,14.20
2019-02-26T13:56:52.384Z,14.20
2019-02-26T14:01:57.418Z,14.30
2019-02-26T14:07:02.422Z,14.30
2019-02-26T14:12:07.502Z,14.30
2019-02-26T14:17:12.653Z,14.50
2019-02-26T14:22:36.905Z,14.50
2019-02-26T14:27:41.971Z,14.60
2019-02-26T14:32:46.978Z,14.60
2019-02-26T14:37:51.993Z,14.60
2019-02-26T14:42:57.293Z,14.60
2019-02-26T14:48:02.320Z,14.60
2019-02-26T14:53:07.329Z,14.60
2019-02-26T14:58:12.362Z,14.60
2019-02-26T15:03:17.380Z,14.60
2019-02-26T15:08:22.477Z,14.50
2019-02-26T15:13:27.528Z,14.50
2019-02-26T15:18:32.614Z,14.50
2019-02-26T15:23:37.611Z,14.50
2019-02-26T15:28:42.633Z,14.50
2019-02-26T15:33:47.641Z,14.30
2019-02-26T15:38:52.674Z,14.30
2019-02-26T15:43:57.708Z,14.30
2019-02-26T15:49:02.707Z,14.10
2019-02-26T15:54:07.718Z,13.90
2019-02-26T15:59:12.765Z,13.80
2019-02-26T16:04:17.825Z,13.50
2019-02-26T16:09:23.129Z,13.10
2019-02-26T16:14:28.149Z,12.80
2019-02-26T16:19:33.257Z,12.50
2019-02-26T16:24:38.644Z,12.40
2019-02-26T16:29:43.955Z,12.50
2019-02-26T16:34:52.194Z,12.20
2019-02-26T16:39:56.011Z,11.90
2019-02-26T16:45:02.566Z,11.50
2019-02-26T16:50:12.894Z,11.20
2019-02-26T16:55:17.264Z,10.80
2019-02-26T17:00:23.215Z,10.30
2019-02-26T17:05:28.248Z,9.80
2019-02-26T17:10:33.682Z,9.70
2019-02-26T17:15:38.717Z,9.40
2019-02-26T17:20:44.118Z,8.90
2019-02-26T17:25:49.293Z,8.60
2019-02-26T17:30:57.410Z,8.40
2019-02-26T17:36:02.003Z,8.20
2019-02-26T17:41:09.952Z,8.00
2019-02-26T17:46:14.387Z,7.70
2019-02-26T17:51:19.623Z,7.40
2019-02-26T17:56:26.687Z,7.20
2019-02-26T18:01:31.313Z,7.20
2019-02-26T18:06:36.370Z,7.00
2019-02-26T18:11:41.433Z,6.70
2019-02-26T18:16:46.663Z,6.50
2019-02-26T18:21:51.842Z,6.30
2019-02-26T18:26:56.833Z,6.20
2019-02-26T18:32:02.513Z,6.00
2019-02-26T18:37:07.548Z,5.90
2019-02-26T18:42:12.557Z,5.90
2019-02-26T18:47:17.610Z,5.80
2019-02-26T18:52:22.656Z,5.70
2019-02-26T18:57:28.005Z,5.60
2019-02-26T19:02:33.519Z,5.40
2019-02-26T19:07:39.664Z,5.20
2019-02-26T19:12:44.718Z,5.10
2019-02-26T19:17:53.021Z,5.00
2019-02-26T19:22:58.897Z,4.80
2019-02-26T19:28:04.552Z,4.80
2019-02-26T19:33:09.561Z,4.60
2019-02-26T19:38:14.586Z,4.60
2019-02-26T19:43:19.738Z,4.40
2019-02-26T19:48:24.737Z,4.30
2019-02-26T19:53:29.736Z,4.30
2019-02-26T19:58:34.752Z,4.20
2019-02-26T20:03:40.735Z,4.10
2019-02-26T20:08:47.241Z,4.00
2019-02-26T20:13:52.621Z,4.00
2019-02-26T20:18:59.077Z,3.90
2019-02-26T20:24:04.457Z,3.80
2019-02-26T20:29:09.465Z,3.80
2019-02-26T20:34:14.461Z,3.70
2019-02-26T20:39:19.473Z,3.60
2019-02-26T20:44:24.491Z,3.50
2019-02-26T20:49:29.501Z,3.40
2019-02-26T20:54:34.563Z,3.30
2019-02-26T20:59:40.411Z,3.20
2019-02-26T21:04:45.553Z,3.20
2019-02-26T21:09:50.784Z,3.20
2019-02-26T21:14:55.822Z,3.10
2019-02-26T21:20:00.949Z,3.10
2019-02-26T21:25:08.461Z,3.10
2019-02-26T21:30:14.849Z,2.90
2019-02-26T21:35:21.162Z,2.90
2019-02-26T21:40:26.453Z,2.90
2019-02-26T21:45:31.470Z,2.80
2019-02-26T21:50:36.473Z,2.80
2019-02-26T21:55:44.394Z,2.80
2019-02-26T22:00:48.148Z,2.80
2019-02-26T22:05:53.520Z,2.90
2019-02-26T22:10:58.538Z,2.80
2019-02-26T22:16:03.589Z,2.90
2019-02-26T22:21:08.597Z,3.00
2019-02-26T22:26:13.614Z,3.00
2019-02-26T22:31:19.198Z,2.90
2019-02-26T22:36:26.026Z,2.90
2019-02-26T22:41:32.777Z,2.80
2019-02-26T22:46:37.662Z,2.80
2019-02-26T22:51:42.710Z,2.80
2019-02-26T22:56:47.785Z,2.70
2019-02-26T23:01:54.044Z,2.60
2019-02-26T23:06:59.070Z,2.50
2019-02-26T23:12:05.717Z,2.50
2019-02-26T23:17:11.025Z,2.30
2019-02-26T23:22:16.640Z,2.10
2019-02-26T23:27:21.673Z,2.10
2019-02-26T23:32:27.980Z,2.00
2019-02-26T23:37:34.515Z,2.00
2019-02-26T23:42:39.724Z,2.00
2019-02-26T23:47:44.925Z,1.90
2019-02-26T23:52:49.935Z,1.80
2019-02-26T23:57:57.744Z,1.70
